5II7 weather

Fort Wayne-District Operations Heliport
Fort Wayne, Indiana, United States

Public forecast

Using degrees Fahrenheit for public forecast. Weather courtesy of forecast.io.

Closest aviation weather report (METAR) to Fort Wayne-District Operations Heliport

Closest report is Fort Wayne International Airport, 5.4 nm (10.0 km) SSW. Retrieved 2020/02/29 01:54 UTC (9 minutes ago):

KFWA 290154Z 27008KT 10SM FEW035 M08/M12 A3006 RMK AO2 SLP193 T10831122

Closest aviation forecast (TAF) to Fort Wayne-District Operations Heliport

Closest forecast is Fort Wayne International Airport, 5.4 nm (10.0 km) SSW. Retrieved 2020-02-29 00:22 UTC (2 hours ago):

TAF KFWA 282320Z 2900/2924 28012KT P6SM SCT040 BKN200 FM291000 26009KT P6SM SCT200